createdAt,value
2023-02-27T00:08:18.605Z,84.29
2023-02-27T00:18:21.209Z,83.70
2023-02-27T00:28:25.184Z,84.02
2023-02-27T00:38:28.079Z,83.90
2023-02-27T00:48:32.302Z,84.23
2023-02-27T00:58:35.157Z,84.30
2023-02-27T01:08:39.212Z,84.55
2023-02-27T01:18:42.608Z,84.73
2023-02-27T01:28:46.520Z,84.38
2023-02-27T01:38:49.203Z,84.58
2023-02-27T01:48:59.396Z,84.41
2023-02-27T01:59:05.740Z,84.84
2023-02-27T02:09:11.506Z,85.23
2023-02-27T02:19:46.480Z,85.58
2023-02-27T02:30:30.517Z,86.28
2023-02-27T02:40:44.069Z,86.63
2023-02-27T02:50:52.242Z,87.38
2023-02-27T03:01:04.709Z,86.12
2023-02-27T03:11:08.235Z,86.12
2023-02-27T03:21:19.714Z,86.39
2023-02-27T03:31:28.663Z,86.49
2023-02-27T03:41:37.501Z,87.63
2023-02-27T03:51:40.222Z,86.93
2023-02-27T04:01:45.264Z,87.41
2023-02-27T04:12:04.417Z,86.86
2023-02-27T04:22:18.344Z,87.96
2023-02-27T04:32:27.138Z,87.38
2023-02-27T04:42:34.040Z,87.39
2023-02-27T04:52:40.091Z,87.38
2023-02-27T05:02:48.490Z,87.22
2023-02-27T05:12:53.927Z,86.95
2023-02-27T05:23:01.510Z,87.12
2023-02-27T05:33:08.361Z,87.44
2023-02-27T05:43:17.932Z,87.37
2023-02-27T05:53:22.935Z,89.18
2023-02-27T06:03:28.291Z,88.42
2023-02-27T06:13:31.001Z,90.28
2023-02-27T06:23:35.109Z,89.33
2023-02-27T06:33:37.765Z,88.99
2023-02-27T06:43:41.753Z,89.34
2023-02-27T06:53:44.466Z,91.15
2023-02-27T07:03:48.410Z,89.76
2023-02-27T07:13:51.012Z,89.51
2023-02-27T07:23:55.026Z,89.85
2023-02-27T07:33:57.641Z,89.97
2023-02-27T07:44:01.615Z,90.28
2023-02-27T07:54:04.446Z,90.37
2023-02-27T08:04:08.418Z,90.29
2023-02-27T08:14:11.032Z,89.81
2023-02-27T08:24:14.986Z,90.40
2023-02-27T08:34:17.636Z,90.20
2023-02-27T08:44:22.145Z,90.15
2023-02-27T08:54:24.838Z,89.45
2023-02-27T09:04:29.027Z,88.10
2023-02-27T09:14:31.929Z,86.90
2023-02-27T09:24:35.965Z,84.83
2023-02-27T09:34:38.756Z,83.40
2023-02-27T09:44:47.263Z,83.32
2023-02-27T09:54:50.406Z,80.53
2023-02-27T10:04:59.527Z,76.56
2023-02-27T10:15:10.576Z,73.47
2023-02-27T10:25:30.869Z,59.77
2023-02-27T10:35:36.907Z,60.04
2023-02-27T10:45:42.232Z,54.78
2023-02-27T10:55:48.722Z,55.90
2023-02-27T11:05:58.143Z,56.34
2023-02-27T11:16:07.785Z,56.71
2023-02-27T11:26:16.389Z,56.18
2023-02-27T11:36:19.112Z,57.16
2023-02-27T11:46:48.441Z,47.93
2023-02-27T11:56:52.587Z,50.13
2023-02-27T12:07:00.051Z,48.28
2023-02-27T12:17:09.384Z,26.01
2023-02-27T12:27:19.208Z,25.49
2023-02-27T12:37:25.664Z,30.55
2023-02-27T12:47:40.702Z,36.73
2023-02-27T12:58:17.717Z,26.17
2023-02-27T13:08:45.088Z,37.85
2023-02-27T13:18:52.009Z,42.35
2023-02-27T13:28:56.436Z,44.00
2023-02-27T13:38:59.108Z,44.62
2023-02-27T13:49:29.517Z,43.77
2023-02-27T13:59:34.647Z,44.69
2023-02-27T14:09:41.706Z,46.22
2023-02-27T14:20:00.832Z,47.74
2023-02-27T14:30:09.249Z,48.73
2023-02-27T14:40:28.061Z,51.14
2023-02-27T14:50:37.260Z,54.97
2023-02-27T15:00:42.757Z,55.59
2023-02-27T15:10:47.095Z,56.89
2023-02-27T15:20:58.483Z,58.90
2023-02-27T15:31:02.617Z,58.72
2023-02-27T15:41:06.080Z,60.19
2023-02-27T15:51:12.767Z,60.98
2023-02-27T16:01:19.962Z,62.11
2023-02-27T16:11:26.423Z,64.03
2023-02-27T16:21:31.448Z,65.16
2023-02-27T16:31:37.616Z,66.75
2023-02-27T16:41:40.289Z,68.20
2023-02-27T16:51:44.246Z,69.42
2023-02-27T17:01:47.014Z,70.20
2023-02-27T17:11:51.358Z,71.50
2023-02-27T17:21:53.958Z,72.44
2023-02-27T17:31:58.453Z,74.18
2023-02-27T17:42:01.344Z,76.63
2023-02-27T17:52:06.990Z,77.76
2023-02-27T18:02:11.603Z,78.90
2023-02-27T18:12:15.611Z,79.44
2023-02-27T18:22:18.253Z,79.31
2023-02-27T18:32:22.234Z,79.19
2023-02-27T18:42:24.907Z,79.59
2023-02-27T18:52:30.797Z,79.48
2023-02-27T19:02:33.768Z,80.01
2023-02-27T19:12:37.818Z,81.48
2023-02-27T19:22:40.480Z,81.63
2023-02-27T19:32:44.459Z,82.20
2023-02-27T19:42:47.057Z,82.35
2023-02-27T19:52:54.148Z,82.60
2023-02-27T20:02:56.913Z,82.40
2023-02-27T20:13:00.854Z,82.79
2023-02-27T20:23:04.206Z,83.65
2023-02-27T20:33:08.359Z,83.90
2023-02-27T20:43:11.010Z,84.39
2023-02-27T20:53:15.032Z,85.45
2023-02-27T21:03:17.642Z,85.54
2023-02-27T21:13:22.801Z,85.54
2023-02-27T21:23:25.408Z,86.01
2023-02-27T21:33:29.345Z,85.64
2023-02-27T21:43:31.961Z,85.41
2023-02-27T21:53:38.668Z,85.86
2023-02-27T22:03:41.528Z,86.99
2023-02-27T22:13:45.470Z,87.20
2023-02-27T22:23:48.578Z,88.27
2023-02-27T22:33:53.984Z,88.04
2023-02-27T22:43:56.704Z,88.04
2023-02-27T22:54:03.339Z,88.67
2023-02-27T23:04:07.889Z,88.73
2023-02-27T23:14:12.690Z,89.20
2023-02-27T23:24:17.978Z,88.61
2023-02-27T23:34:21.985Z,87.77
2023-02-27T23:44:24.744Z,87.55
2023-02-27T23:54:28.695Z,88.98
